INFORMACIÓN METAR y TAF
METAR FOR ESNX
ADDS - METARS form results

(2053 UTC 17 November 2019)
Data provider http://aviationweather.gov/metar/data/
 
METAR text: ESNX 172050Z AUTO 00000KT 5000 SG OVC002/// M05/M05 Q1018 RESG
Conditions at: ESNX (ARVIDSJAUR , SE) observed 2050 UTC 17 November 2019
Temperature: -5.0°C (23°F)
Dewpoint: -5.0°C (23°F) [RH = 100%]
Pressure (altimeter): 30.06 inches Hg (1018.0 mb)
Winds: calm
Visibility: 3 miles ( 5 km)
Ceiling: 200 feet AGL
Clouds: overcast cloud deck at 200 feet AGL
Weather: SG  (moderate snow grains)

METAR text: ESNX 172020Z 00000KT 5000 -SG OVC002 M05/M05 Q1018
Conditions at: ESNX (ARVIDSJAUR , SE) observed 2020 UTC 17 November 2019
Temperature: -5.0°C (23°F)
Dewpoint: -5.0°C (23°F) [RH = 100%]
Pressure (altimeter): 30.06 inches Hg (1018.0 mb)
Winds: calm
Visibility: 3 miles ( 5 km)
Ceiling: 200 feet AGL
Clouds: overcast cloud deck at 200 feet AGL
Weather: -SG  (light snow grains)

Forecast for: ESNX (ARVIDSJAUR , SE)
Text: TAF ESNX 171730Z 1718/1720 VRB02KT 9999 BKN006
Forecast period: 1800 to 2000 UTC 17 November 2019
Forecast type: FROM: standard forecast or significant change
Winds: variable direction winds at 2 MPH (2 knots; 1.0 m/s)
Visibility: 6 or more miles 10+ km)
Ceiling: 600 feet AGL
Clouds: broken clouds at 600 feet AGL
Weather: no significant weather forecast for this period
Text: TEMPO 1718/1720 2000 -SN BKN002
Forecast period: 1800 to 2000 UTC 17 November 2019
Forecast type: TEMPORARY: The following changes expected for less than half the time period
Visibility: 1.24 miles (2.00 km)
Ceiling: 200 feet AGL
Clouds: broken clouds at 200 feet AGL
Weather: -SN  (light snow)

 MAPA DE AEROPUERTO

 INFORMACIÓN DE PISTA
Pista 12 Longitud 8201 ft Ancho 148 ft
Elevación 1241 ft Umbral desplazado 0 ft Rumbo de pista 128
Pista 30 Longitud 8201 ft Ancho 148 ft
Elevación 1240 ft Umbral desplazado 0 ft Rumbo de pista 308

 FRECUANCIAS DEL AEROPUERTO
Tipo AFIS Nombre AFIS Frecuencia 123 MHZ
Tipo TWR Nombre TWR Frecuencia 123 MHZ

 RADIO AYUDAS DEL AEROPUERTO
Tipo NDB Nombre Arvidsjaur Frecuencia 381 KHZ



Powered by Virtual Airlines Manager [v2.6.2]